Terminal Aerodrome Forecast
Issued by NWS

Home | Current Version | Previous Version | Text Only | Print | Product List | Glossary On
Versions: 1 2 3 4 5 6 7 8 9 10 11 12 13 14 15 16 17
000
FTUS42 KTBW 250604 CCA
TAFLAL
TAF COR
KLAL 250604Z 2506/2606 VRB03KT 3SM BR SCT005
      TEMPO 2506/2510 1/2SM FG BKN005
     FM251000 VRB03KT 1SM BR BKN005
      TEMPO 2510/2514 1/4SM FG BKN002
     FM251500 34005KT P6SM FEW010 BKN250
     FM260100 VRB03KT P6SM FEW040 BKN100
      AMD NOT SKED TIL 251200=

USA.gov is the U.S. government's official web portal to all federal, state and local government web resources and services.